createdAt,value
2023-02-14T00:01:13.784Z,0.85
2023-02-14T00:03:40.811Z,0.28
2023-02-14T00:06:13.467Z,0.68
2023-02-14T00:08:44.384Z,1.02
2023-02-14T00:11:12.560Z,1.30
2023-02-14T00:13:39.685Z,1.23
2023-02-14T00:16:06.970Z,0.93
2023-02-14T00:18:52.420Z,0.45
2023-02-14T00:21:19.456Z,0.47
2023-02-14T00:23:46.467Z,0.10
2023-02-14T00:26:15.200Z,0.38
2023-02-14T00:28:42.677Z,0.93
2023-02-14T00:31:10.272Z,0.60
2023-02-14T00:33:37.683Z,1.23
2023-02-14T00:36:07.078Z,0.82
2023-02-14T00:38:34.647Z,0.63
2023-02-14T00:41:02.300Z,0.57
2023-02-14T00:43:29.687Z,0.40
2023-02-14T00:45:57.201Z,1.40
2023-02-14T00:48:24.503Z,0.93
2023-02-14T00:50:51.559Z,0.82
2023-02-14T00:53:18.673Z,0.60
2023-02-14T00:55:47.013Z,0.93
2023-02-14T00:58:14.286Z,0.90
2023-02-14T01:00:41.388Z,0.57
2023-02-14T01:03:08.435Z,0.40
2023-02-14T01:05:35.716Z,0.65
2023-02-14T01:08:02.854Z,0.55
2023-02-14T01:10:29.838Z,1.17
2023-02-14T01:12:56.842Z,0.73
2023-02-14T01:15:23.948Z,0.40
2023-02-14T01:17:50.908Z,1.63
2023-02-14T01:20:18.033Z,0.43
2023-02-14T01:22:45.094Z,0.35
2023-02-14T01:25:12.097Z,0.35
2023-02-14T01:27:39.223Z,0.47
2023-02-14T01:30:07.305Z,0.50
2023-02-14T01:32:34.757Z,0.52
2023-02-14T01:35:02.162Z,0.88
2023-02-14T01:37:30.676Z,1.05
2023-02-14T01:39:57.740Z,0.17
2023-02-14T01:42:24.724Z,0.75
2023-02-14T01:44:58.206Z,0.55
2023-02-14T01:47:28.945Z,0.22
2023-02-14T01:50:07.403Z,0.88
2023-02-14T01:52:51.541Z,1.27
2023-02-14T01:55:22.198Z,1.30
2023-02-14T01:58:11.948Z,1.30
2023-02-14T02:00:59.311Z,0.95
2023-02-14T02:03:28.478Z,0.60
2023-02-14T02:06:03.525Z,0.35
2023-02-14T02:08:30.786Z,0.77
2023-02-14T02:10:58.071Z,0.50
2023-02-14T02:13:25.257Z,0.57
2023-02-14T02:16:22.734Z,0.95
2023-02-14T02:18:57.422Z,1.20
2023-02-14T02:21:43.408Z,0.40
2023-02-14T02:24:43.441Z,1.10
2023-02-14T02:27:47.828Z,0.20
2023-02-14T02:30:47.701Z,0.73
2023-02-14T02:33:39.268Z,0.65
2023-02-14T02:36:21.423Z,0.90
2023-02-14T02:39:13.959Z,0.57
2023-02-14T02:42:12.365Z,1.23
2023-02-14T02:44:52.148Z,0.75
2023-02-14T02:47:40.231Z,0.43
2023-02-14T02:50:46.136Z,0.32
2023-02-14T02:53:24.503Z,0.70
2023-02-14T02:56:35.314Z,0.60
2023-02-14T02:59:45.772Z,0.75
2023-02-14T03:02:23.780Z,0.98
2023-02-14T03:05:03.312Z,0.15
2023-02-14T03:07:34.927Z,2.25
2023-02-14T03:10:28.374Z,0.80
2023-02-14T03:13:11.264Z,0.20
2023-02-14T03:16:16.944Z,0.50
2023-02-14T03:19:17.154Z,0.52
2023-02-14T03:21:56.701Z,1.42
2023-02-14T03:24:44.765Z,0.47
2023-02-14T03:27:27.837Z,0.17
2023-02-14T03:30:13.574Z,0.73
2023-02-14T03:33:03.856Z,1.15
2023-02-14T03:35:40.889Z,1.33
2023-02-14T03:38:33.001Z,0.77
2023-02-14T03:41:09.178Z,0.73
2023-02-14T03:43:41.914Z,0.63
2023-02-14T03:46:29.270Z,1.17
2023-02-14T03:49:00.112Z,1.08
2023-02-14T03:51:29.114Z,0.65
2023-02-14T03:53:58.913Z,0.40
2023-02-14T03:56:41.047Z,0.93
2023-02-14T03:59:20.258Z,1.33
2023-02-14T04:02:01.574Z,0.52
2023-02-14T04:04:33.692Z,1.40
2023-02-14T04:07:07.863Z,1.60
2023-02-14T04:09:34.829Z,0.30
2023-02-14T04:12:01.809Z,0.52
2023-02-14T04:14:30.416Z,0.52
2023-02-14T04:17:16.132Z,1.33
2023-02-14T04:19:43.198Z,0.30
2023-02-14T04:22:10.225Z,1.00
2023-02-14T04:24:37.205Z,1.38
2023-02-14T04:27:11.098Z,1.25
2023-02-14T04:29:43.686Z,0.75
2023-02-14T04:32:14.824Z,1.40
2023-02-14T04:34:42.048Z,0.75
2023-02-14T04:37:09.728Z,0.70
2023-02-14T04:39:36.903Z,2.13
2023-02-14T04:42:04.787Z,1.35
2023-02-14T04:44:34.008Z,0.70
2023-02-14T04:47:01.884Z,0.75
2023-02-14T04:49:28.854Z,0.50
2023-02-14T04:51:55.998Z,0.98
2023-02-14T04:54:23.287Z,0.43
2023-02-14T04:56:50.574Z,0.80
2023-02-14T04:59:17.967Z,0.57
2023-02-14T05:01:45.194Z,0.70
2023-02-14T05:04:12.363Z,0.38
2023-02-14T05:06:39.533Z,0.25
2023-02-14T05:09:06.820Z,0.38
2023-02-14T05:11:33.946Z,1.02
2023-02-14T05:14:00.965Z,0.30
2023-02-14T05:16:28.125Z,0.73
2023-02-14T05:18:55.228Z,0.50
2023-02-14T05:21:22.368Z,0.50
2023-02-14T05:23:49.417Z,0.55
2023-02-14T05:26:16.654Z,1.08
2023-02-14T05:28:43.693Z,0.75
2023-02-14T05:31:10.986Z,1.50
2023-02-14T05:33:38.172Z,0.20
2023-02-14T05:36:05.500Z,0.43
2023-02-14T05:38:33.650Z,0.17
2023-02-14T05:41:01.608Z,0.98
2023-02-14T05:43:30.321Z,0.63
2023-02-14T05:45:58.640Z,0.47
2023-02-14T05:48:25.816Z,0.95
2023-02-14T05:50:53.129Z,0.28
2023-02-14T05:53:20.381Z,0.10
2023-02-14T05:55:47.601Z,0.90
2023-02-14T05:58:14.813Z,0.20
2023-02-14T06:00:41.914Z,1.35
2023-02-14T06:03:09.136Z,0.55
2023-02-14T06:05:36.161Z,0.73
2023-02-14T06:08:03.286Z,0.95
2023-02-14T06:10:30.516Z,0.50
2023-02-14T06:12:57.808Z,0.45
2023-02-14T06:15:24.900Z,0.98
2023-02-14T06:17:56.274Z,0.45
2023-02-14T06:20:24.743Z,0.50
2023-02-14T06:22:52.116Z,1.77
2023-02-14T06:25:20.323Z,0.63
2023-02-14T06:27:49.239Z,0.68
2023-02-14T06:30:18.361Z,1.23
2023-02-14T06:32:45.558Z,1.30
2023-02-14T06:35:13.790Z,0.40
2023-02-14T06:37:42.271Z,0.93
2023-02-14T06:40:10.519Z,0.50
2023-02-14T06:42:38.556Z,0.70
2023-02-14T06:45:06.656Z,1.23
2023-02-14T06:47:35.117Z,0.43
2023-02-14T06:50:05.184Z,0.95
2023-02-14T06:52:34.093Z,0.80
2023-02-14T06:55:01.107Z,0.35
2023-02-14T06:57:28.303Z,1.48
2023-02-14T06:59:55.806Z,0.82
2023-02-14T07:02:24.928Z,0.98
2023-02-14T07:04:52.371Z,1.20
2023-02-14T07:07:19.515Z,0.80
2023-02-14T07:09:46.587Z,1.48
2023-02-14T07:12:13.609Z,1.90
2023-02-14T07:14:40.704Z,2.15
2023-02-14T07:17:07.834Z,2.40
2023-02-14T07:19:35.114Z,2.85
2023-02-14T07:22:02.381Z,1.58
2023-02-14T07:24:29.390Z,2.50
2023-02-14T07:26:56.454Z,1.67
2023-02-14T07:29:23.664Z,1.42
2023-02-14T07:31:50.899Z,1.83
2023-02-14T07:34:18.075Z,1.70
2023-02-14T07:36:45.103Z,1.58
2023-02-14T07:39:12.165Z,1.23
2023-02-14T07:41:39.271Z,0.90
2023-02-14T07:44:06.236Z,1.20
2023-02-14T07:46:33.548Z,1.73
2023-02-14T07:49:00.597Z,0.65
2023-02-14T07:51:27.646Z,0.88
2023-02-14T07:53:54.813Z,2.70
2023-02-14T07:56:23.225Z,2.53
2023-02-14T07:58:50.337Z,1.73
2023-02-14T08:01:18.075Z,2.38
2023-02-14T08:03:49.365Z,1.98
2023-02-14T08:06:17.735Z,1.77
2023-02-14T08:08:45.090Z,1.85
2023-02-14T08:11:32.835Z,2.40
2023-02-14T08:14:00.089Z,2.30
2023-02-14T08:16:27.228Z,2.28
2023-02-14T08:18:54.433Z,2.08
2023-02-14T08:21:21.490Z,2.50
2023-02-14T08:23:48.540Z,2.65
2023-02-14T08:26:15.906Z,3.45
2023-02-14T08:28:43.317Z,2.70
2023-02-14T08:31:11.365Z,1.55
2023-02-14T08:33:38.418Z,1.80
2023-02-14T08:36:05.743Z,1.65
2023-02-14T08:38:32.834Z,2.25
2023-02-14T08:41:03.754Z,1.88
2023-02-14T08:43:34.215Z,1.60
2023-02-14T08:46:02.043Z,1.33
2023-02-14T08:48:29.453Z,1.17
2023-02-14T08:50:56.493Z,1.98
2023-02-14T08:53:23.846Z,0.73
2023-02-14T08:55:50.856Z,2.47
2023-02-14T08:58:18.517Z,1.92
2023-02-14T09:00:45.705Z,0.77
2023-02-14T09:03:13.006Z,3.03
2023-02-14T09:05:40.396Z,0.90
2023-02-14T09:08:07.912Z,0.65
2023-02-14T09:10:34.961Z,1.55
2023-02-14T09:13:02.124Z,1.15
2023-02-14T09:15:29.392Z,0.82
2023-02-14T09:17:56.737Z,1.35
2023-02-14T09:20:23.895Z,1.35
2023-02-14T09:22:51.860Z,2.08
2023-02-14T09:25:18.937Z,1.52
2023-02-14T09:27:45.967Z,0.95
2023-02-14T09:30:13.905Z,1.25
2023-02-14T09:32:41.150Z,1.13
2023-02-14T09:35:08.432Z,2.22
2023-02-14T09:37:35.489Z,1.10
2023-02-14T09:40:02.950Z,1.98
2023-02-14T09:43:15.959Z,1.05
2023-02-14T09:45:47.140Z,0.65
2023-02-14T09:48:33.516Z,2.08
2023-02-14T09:51:13.005Z,2.22
2023-02-14T09:54:03.954Z,1.08
2023-02-14T09:56:55.562Z,0.17
2023-02-14T09:59:28.774Z,1.48
2023-02-14T10:02:10.795Z,1.10
2023-02-14T10:04:47.042Z,1.05
2023-02-14T10:07:17.122Z,0.43
2023-02-14T10:09:47.218Z,2.08
2023-02-14T10:12:25.328Z,1.17
2023-02-14T10:14:55.499Z,2.38
2023-02-14T10:17:35.192Z,0.73
2023-02-14T10:20:05.840Z,1.00
2023-02-14T10:23:04.997Z,1.02
2023-02-14T10:25:56.855Z,0.40
2023-02-14T10:28:32.698Z,0.70
2023-02-14T10:31:15.293Z,1.45
2023-02-14T10:33:45.652Z,0.98
2023-02-14T10:36:36.812Z,0.88
2023-02-14T10:39:27.656Z,0.90
2023-02-14T10:42:28.741Z,0.57
2023-02-14T10:45:19.970Z,0.80
2023-02-14T10:47:53.382Z,0.50
2023-02-14T10:50:35.017Z,0.85
2023-02-14T10:53:28.200Z,0.90
2023-02-14T10:56:06.230Z,1.13
2023-02-14T10:58:38.606Z,0.60
2023-02-14T11:01:14.582Z,1.95
2023-02-14T11:03:52.694Z,1.27
2023-02-14T11:06:20.188Z,1.15
2023-02-14T11:08:47.271Z,0.70
2023-02-14T11:11:21.664Z,0.80
2023-02-14T11:13:49.249Z,0.30
2023-02-14T11:16:36.356Z,1.35
2023-02-14T11:19:15.592Z,0.68
2023-02-14T11:21:45.048Z,0.90
2023-02-14T11:24:25.661Z,0.35
2023-02-14T11:26:55.755Z,0.20
2023-02-14T11:29:33.358Z,0.35
2023-02-14T11:32:13.685Z,0.30
2023-02-14T11:34:54.362Z,0.83
2023-02-14T11:37:26.496Z,0.45
2023-02-14T11:39:55.486Z,1.13
2023-02-14T11:42:36.120Z,0.55
2023-02-14T11:45:05.322Z,1.25
2023-02-14T11:47:35.143Z,0.65
2023-02-14T11:50:21.261Z,0.60
2023-02-14T11:52:57.165Z,0.40
2023-02-14T11:55:30.295Z,0.63
2023-02-14T11:57:58.286Z,0.63
2023-02-14T12:00:27.899Z,1.15
2023-02-14T12:02:57.187Z,1.45
2023-02-14T12:05:47.658Z,0.90
2023-02-14T12:08:15.626Z,0.87
2023-02-14T12:10:42.908Z,0.68
2023-02-14T12:13:12.932Z,1.45
2023-02-14T12:16:00.611Z,0.60
2023-02-14T12:19:02.657Z,0.38
2023-02-14T12:21:41.818Z,1.20
2023-02-14T12:24:23.990Z,0.55
2023-02-14T12:26:55.818Z,0.85
2023-02-14T12:29:32.220Z,1.83
2023-02-14T12:32:06.052Z,0.77
2023-02-14T12:34:34.675Z,1.23
2023-02-14T12:37:27.933Z,1.15
2023-02-14T12:40:00.859Z,0.68
2023-02-14T12:42:46.326Z,0.30
2023-02-14T12:45:30.791Z,0.77
2023-02-14T12:48:38.172Z,0.68
2023-02-14T12:51:15.745Z,0.73
2023-02-14T12:53:46.656Z,0.50
2023-02-14T12:56:42.439Z,1.30
2023-02-14T12:59:24.372Z,0.47
2023-02-14T13:01:59.799Z,0.68
2023-02-14T13:04:45.158Z,0.47
2023-02-14T13:07:48.959Z,0.17
2023-02-14T13:10:41.829Z,0.52
2023-02-14T13:13:27.502Z,0.77
2023-02-14T13:16:19.355Z,0.43
2023-02-14T13:19:35.572Z,0.68
2023-02-14T13:22:07.319Z,0.43
2023-02-14T13:24:42.123Z,1.23
2023-02-14T13:27:16.606Z,0.98
2023-02-14T13:29:48.430Z,1.13
2023-02-14T13:32:20.182Z,0.22
2023-02-14T13:34:49.718Z,1.27
2023-02-14T13:37:20.708Z,0.52
2023-02-14T13:40:23.955Z,1.30
2023-02-14T13:42:52.679Z,0.77
2023-02-14T13:45:32.693Z,0.65
2023-02-14T13:48:24.793Z,0.45
2023-02-14T13:51:08.688Z,0.90
2023-02-14T13:53:47.257Z,0.57
2023-02-14T13:56:21.057Z,0.60
2023-02-14T13:58:50.066Z,1.05
2023-02-14T14:01:42.333Z,0.45
2023-02-14T14:04:33.251Z,0.60
2023-02-14T14:07:03.403Z,0.77
2023-02-14T14:09:42.850Z,0.97
2023-02-14T14:12:28.137Z,0.75
2023-02-14T14:15:07.012Z,0.50
2023-02-14T14:17:44.553Z,0.75
2023-02-14T14:20:20.083Z,0.47
2023-02-14T14:22:53.606Z,0.28
2023-02-14T14:25:39.792Z,0.43
2023-02-14T14:28:22.126Z,0.68
2023-02-14T14:30:49.416Z,0.88
2023-02-14T14:33:23.900Z,0.68
2023-02-14T14:35:56.087Z,0.52
2023-02-14T14:38:24.132Z,1.15
2023-02-14T14:40:51.930Z,1.25
2023-02-14T14:43:30.517Z,0.40
2023-02-14T14:46:00.063Z,1.20
2023-02-14T14:48:52.421Z,0.63
2023-02-14T14:51:32.194Z,0.45
2023-02-14T14:54:07.096Z,0.80
2023-02-14T14:56:47.071Z,1.08
2023-02-14T14:59:27.071Z,0.93
2023-02-14T15:01:54.628Z,1.65
2023-02-14T15:04:29.143Z,1.02
2023-02-14T15:06:58.824Z,0.93
2023-02-14T15:09:33.842Z,0.90
2023-02-14T15:12:21.773Z,0.82
2023-02-14T15:14:54.888Z,0.45
2023-02-14T15:17:31.545Z,0.55
2023-02-14T15:20:16.948Z,0.75
2023-02-14T15:22:46.769Z,0.63
2023-02-14T15:25:22.059Z,1.05
2023-02-14T15:27:49.701Z,0.73
2023-02-14T15:30:19.673Z,0.77
2023-02-14T15:32:49.739Z,1.60
2023-02-14T15:35:21.790Z,1.30
2023-02-14T15:37:51.453Z,0.90
2023-02-14T15:40:23.299Z,0.98
2023-02-14T15:42:56.765Z,1.27
2023-02-14T15:45:31.297Z,0.77
2023-02-14T15:48:03.682Z,1.25
2023-02-14T15:50:36.726Z,0.63
2023-02-14T15:53:27.834Z,1.77
2023-02-14T15:56:01.929Z,1.45
2023-02-14T15:58:32.791Z,0.95
2023-02-14T16:01:01.053Z,1.00
2023-02-14T16:03:33.940Z,1.40
2023-02-14T16:06:01.072Z,0.60
2023-02-14T16:08:35.692Z,0.82
2023-02-14T16:11:15.923Z,1.08
2023-02-14T16:13:47.351Z,0.63
2023-02-14T16:16:17.070Z,0.65
2023-02-14T16:18:45.666Z,0.88
2023-02-14T16:21:20.521Z,0.40
2023-02-14T16:24:18.560Z,1.45
2023-02-14T16:26:46.586Z,0.85
2023-02-14T16:29:16.218Z,1.17
2023-02-14T16:32:14.009Z,1.50
2023-02-14T16:34:37.287Z,1.65
2023-02-14T16:37:17.314Z,0.68
2023-02-14T16:39:44.843Z,0.47
2023-02-14T16:42:18.582Z,0.77
2023-02-14T16:44:46.751Z,0.57
2023-02-14T16:47:16.527Z,1.48
2023-02-14T16:49:43.943Z,0.90
2023-02-14T16:52:17.157Z,0.70
2023-02-14T16:54:44.654Z,0.98
2023-02-14T16:57:41.250Z,0.88
2023-02-14T17:00:09.690Z,2.83
2023-02-14T17:02:37.460Z,2.75
2023-02-14T17:05:05.081Z,2.95
2023-02-14T17:07:33.516Z,3.03
2023-02-14T17:10:10.663Z,4.00
2023-02-14T17:12:41.971Z,2.00
2023-02-14T17:15:13.470Z,2.00
2023-02-14T17:17:41.493Z,0.80
2023-02-14T17:20:09.559Z,1.45
2023-02-14T17:22:37.590Z,1.38
2023-02-14T17:25:06.259Z,0.82
2023-02-14T17:27:33.319Z,0.88
2023-02-14T17:30:00.449Z,1.33
2023-02-14T17:32:27.755Z,1.42
2023-02-14T17:34:54.995Z,0.93
2023-02-14T17:37:22.124Z,1.10
2023-02-14T17:39:49.486Z,0.35
2023-02-14T17:42:16.530Z,0.85
2023-02-14T17:44:44.811Z,2.08
2023-02-14T17:47:12.107Z,1.83
2023-02-14T17:49:39.193Z,2.15
2023-02-14T17:52:06.271Z,1.52
2023-02-14T17:54:38.917Z,0.60
2023-02-14T17:57:06.220Z,1.23
2023-02-14T17:59:34.236Z,1.10
2023-02-14T18:02:01.757Z,1.25
2023-02-14T18:04:30.449Z,2.08
2023-02-14T18:06:57.536Z,0.30
2023-02-14T18:09:25.994Z,1.30
2023-02-14T18:11:53.049Z,0.65
2023-02-14T18:14:20.234Z,1.17
2023-02-14T18:16:47.960Z,0.45
2023-02-14T18:19:18.193Z,1.48
2023-02-14T18:21:46.383Z,0.77
2023-02-14T18:24:15.412Z,0.80
2023-02-14T18:26:43.046Z,0.45
2023-02-14T18:29:11.129Z,0.93
2023-02-14T18:31:39.902Z,0.98
2023-02-14T18:34:07.763Z,1.50
2023-02-14T18:36:39.733Z,1.17
2023-02-14T18:39:08.701Z,0.20
2023-02-14T18:41:36.831Z,0.45
2023-02-14T18:44:04.827Z,0.80
2023-02-14T18:46:35.508Z,2.30
2023-02-14T18:49:04.744Z,1.33
2023-02-14T18:51:34.431Z,1.15
2023-02-14T18:54:02.603Z,1.70
2023-02-14T18:56:32.923Z,1.05
2023-02-14T18:59:06.510Z,1.42
2023-02-14T19:01:39.691Z,2.15
2023-02-14T19:04:08.759Z,1.38
2023-02-14T19:06:36.257Z,1.55
2023-02-14T19:09:07.306Z,3.47
2023-02-14T19:14:03.022Z,0.90
2023-02-14T19:16:33.492Z,2.17
2023-02-14T19:19:02.664Z,1.92
2023-02-14T19:21:33.760Z,2.83
2023-02-14T19:24:02.570Z,2.95
2023-02-14T19:26:37.375Z,2.45
2023-02-14T19:29:08.369Z,1.70
2023-02-14T19:31:37.670Z,1.75
2023-02-14T19:34:07.010Z,1.73
2023-02-14T19:36:37.679Z,2.78
2023-02-14T19:39:05.612Z,3.55
2023-02-14T19:41:36.664Z,2.63
2023-02-14T19:46:33.628Z,2.47
2023-02-14T19:49:01.657Z,3.25
2023-02-14T19:51:32.229Z,3.20
2023-02-14T19:54:01.469Z,1.98
2023-02-14T19:56:31.584Z,2.33
2023-02-14T19:58:59.881Z,2.97
2023-02-14T20:01:33.652Z,2.47
2023-02-14T20:04:01.233Z,2.78
2023-02-14T20:06:31.740Z,2.22
2023-02-14T20:08:59.027Z,2.92
2023-02-14T20:11:39.974Z,2.97
2023-02-14T20:14:09.218Z,3.58
2023-02-14T20:16:37.359Z,3.53
2023-02-14T20:19:08.321Z,1.73
2023-02-14T20:21:35.685Z,5.28
2023-02-14T20:24:04.647Z,2.97
2023-02-14T20:26:34.111Z,3.17
2023-02-14T20:29:06.080Z,2.95
2023-02-14T20:31:37.027Z,5.03
2023-02-14T20:34:04.320Z,2.88
2023-02-14T20:36:31.474Z,3.67
2023-02-14T20:39:00.996Z,7.32
2023-02-14T20:41:28.870Z,4.30
2023-02-14T20:44:03.376Z,5.20
2023-02-14T20:46:31.864Z,5.95
2023-02-14T20:48:59.174Z,6.95
2023-02-14T20:51:26.625Z,4.40
2023-02-14T20:53:54.286Z,4.38
2023-02-14T20:56:23.665Z,3.20
2023-02-14T20:58:51.552Z,3.90
2023-02-14T21:01:27.994Z,2.78
2023-02-14T21:03:55.872Z,3.45
2023-02-14T21:06:26.469Z,4.07
2023-02-14T21:08:53.637Z,3.88
2023-02-14T21:11:25.619Z,1.33
2023-02-14T21:13:59.675Z,1.83
2023-02-14T21:16:28.240Z,1.38
2023-02-14T21:18:59.358Z,3.28
2023-02-14T21:24:02.590Z,3.08
2023-02-14T21:26:29.851Z,2.13
2023-02-14T21:28:56.997Z,1.95
2023-02-14T21:31:25.843Z,2.20
2023-02-14T21:33:57.759Z,3.60
2023-02-14T21:36:35.734Z,1.35
2023-02-14T21:39:04.594Z,1.35
2023-02-14T21:41:32.744Z,1.85
2023-02-14T21:44:01.502Z,1.05
2023-02-14T21:46:31.741Z,2.95
2023-02-14T21:49:21.720Z,4.00
2023-02-14T21:51:49.258Z,2.80
2023-02-14T21:54:16.999Z,2.30
2023-02-14T21:56:44.422Z,1.48
2023-02-14T21:59:12.120Z,1.20
2023-02-14T22:01:41.273Z,3.30
2023-02-14T22:04:10.303Z,3.03
2023-02-14T22:06:40.014Z,2.05
2023-02-14T22:09:07.779Z,2.33
2023-02-14T22:11:35.837Z,1.33
2023-02-14T22:14:03.127Z,1.27
2023-02-14T22:16:30.579Z,3.75
2023-02-14T22:18:58.692Z,3.47
2023-02-14T22:21:27.422Z,2.30
2023-02-14T22:23:55.412Z,2.22
2023-02-14T22:26:27.702Z,2.55
2023-02-14T22:28:59.216Z,2.83
2023-02-14T22:31:30.353Z,4.05
2023-02-14T22:36:24.283Z,1.95
2023-02-14T22:38:52.872Z,3.53
2023-02-14T22:41:22.279Z,2.38
2023-02-14T22:43:50.070Z,2.80
2023-02-14T22:46:20.039Z,2.85
2023-02-14T22:48:48.416Z,1.45
2023-02-14T22:51:20.553Z,1.50
2023-02-14T22:53:48.457Z,1.65
2023-02-14T22:56:19.602Z,2.63
2023-02-14T23:01:16.120Z,2.60
2023-02-14T23:03:44.345Z,1.55
2023-02-14T23:06:12.733Z,1.17
2023-02-14T23:08:45.082Z,2.88
2023-02-14T23:11:14.732Z,3.10
2023-02-14T23:14:00.507Z,1.98
2023-02-14T23:16:46.385Z,1.75
2023-02-14T23:19:34.770Z,2.58
2023-02-14T23:22:12.448Z,3.25
2023-02-14T23:24:39.975Z,2.20
2023-02-14T23:27:08.244Z,1.38
2023-02-14T23:29:37.128Z,2.70
2023-02-14T23:32:05.934Z,2.40
2023-02-14T23:34:35.292Z,2.92
2023-02-14T23:37:03.286Z,2.30
2023-02-14T23:39:36.820Z,1.63
2023-02-14T23:42:09.201Z,2.03
2023-02-14T23:44:36.666Z,2.28
2023-02-14T23:47:06.027Z,1.63
2023-02-14T23:49:34.705Z,2.03
2023-02-14T23:52:02.228Z,1.33
2023-02-14T23:54:29.454Z,2.40
2023-02-14T23:56:57.678Z,2.58
2023-02-14T23:59:25.839Z,2.63
